createdAt,value
2022-12-26T00:04:49.384Z,2.80
2022-12-26T00:09:50.222Z,2.43
2022-12-26T00:14:53.217Z,2.60
2022-12-26T00:19:56.191Z,2.60
2022-12-26T00:24:59.161Z,2.50
2022-12-26T00:30:02.167Z,2.80
2022-12-26T00:35:05.469Z,2.83
2022-12-26T00:40:09.179Z,2.53
2022-12-26T00:45:12.201Z,3.00
2022-12-26T00:50:16.043Z,3.00
2022-12-26T00:55:19.271Z,2.90
2022-12-26T01:00:22.273Z,2.83
2022-12-26T01:05:32.849Z,3.37
2022-12-26T01:10:36.499Z,2.27
2022-12-26T01:15:39.775Z,2.60
2022-12-26T01:20:42.864Z,3.30
2022-12-26T01:26:17.049Z,2.73
2022-12-26T01:31:27.917Z,3.10
2022-12-26T01:36:35.872Z,2.93
2022-12-26T01:42:08.125Z,3.10
2022-12-26T01:47:24.751Z,3.20
2022-12-26T01:52:56.635Z,2.87
2022-12-26T01:58:28.039Z,3.23
2022-12-26T02:04:15.698Z,3.30
2022-12-26T02:09:43.605Z,3.20
2022-12-26T02:14:53.411Z,3.13
2022-12-26T02:20:20.778Z,3.00
2022-12-26T02:26:02.668Z,2.80
2022-12-26T02:31:46.145Z,2.97
2022-12-26T02:37:25.746Z,3.10
2022-12-26T02:43:06.778Z,3.13
2022-12-26T02:48:50.076Z,3.07
2022-12-26T02:55:02.284Z,2.73
2022-12-26T03:00:26.767Z,2.70
2022-12-26T03:06:07.209Z,2.70
2022-12-26T03:11:47.976Z,2.80
2022-12-26T03:17:27.044Z,2.93
2022-12-26T03:23:00.495Z,2.70
2022-12-26T03:28:13.825Z,2.50
2022-12-26T03:34:02.714Z,2.90
2022-12-26T03:39:49.389Z,2.73
2022-12-26T03:45:21.327Z,2.90
2022-12-26T03:51:27.478Z,2.47
2022-12-26T03:57:20.580Z,2.43
2022-12-26T04:03:17.610Z,2.30
2022-12-26T04:08:49.067Z,2.70
2022-12-26T04:14:28.227Z,2.70
2022-12-26T04:19:58.885Z,2.50
2022-12-26T04:25:50.346Z,2.60
2022-12-26T04:31:56.875Z,2.80
2022-12-26T04:37:43.485Z,2.77
2022-12-26T04:43:47.033Z,3.13
2022-12-26T04:49:16.550Z,2.90
2022-12-26T04:54:24.491Z,3.10
2022-12-26T04:59:31.423Z,2.93
2022-12-26T05:05:02.850Z,2.83
2022-12-26T05:10:20.111Z,2.70
2022-12-26T05:15:23.557Z,3.27
2022-12-26T05:20:55.056Z,3.13
2022-12-26T05:26:27.387Z,3.37
2022-12-26T05:31:49.388Z,2.70
2022-12-26T05:37:11.156Z,3.07
2022-12-26T05:42:36.059Z,3.20
2022-12-26T05:47:49.886Z,3.20
2022-12-26T05:53:10.067Z,3.40
2022-12-26T05:58:33.412Z,3.27
2022-12-26T06:03:50.129Z,2.70
2022-12-26T06:08:55.521Z,3.07
2022-12-26T06:14:07.265Z,2.77
2022-12-26T06:19:16.689Z,2.87
2022-12-26T06:24:21.304Z,2.80
2022-12-26T06:29:24.371Z,2.60
2022-12-26T06:34:30.139Z,2.90
2022-12-26T06:39:33.129Z,2.80
2022-12-26T06:44:36.052Z,2.97
2022-12-26T06:49:39.031Z,3.07
2022-12-26T06:54:42.674Z,2.63
2022-12-26T06:59:46.899Z,3.23
2022-12-26T07:04:59.913Z,3.00
2022-12-26T07:10:06.328Z,3.07
2022-12-26T07:15:10.392Z,2.47
2022-12-26T07:20:13.577Z,2.73
2022-12-26T07:25:16.580Z,2.87
2022-12-26T07:30:19.580Z,2.80
2022-12-26T07:35:22.622Z,3.07
2022-12-26T07:40:27.008Z,2.90
2022-12-26T07:45:30.237Z,3.50
2022-12-26T07:50:33.260Z,2.80
2022-12-26T07:55:36.209Z,3.10
2022-12-26T08:00:39.222Z,2.97
2022-12-26T08:06:07.081Z,2.83
2022-12-26T08:11:35.380Z,2.97
2022-12-26T08:17:04.608Z,2.47
2022-12-26T08:22:10.165Z,2.33
2022-12-26T08:27:24.749Z,2.77
2022-12-26T08:38:48.334Z,2.70
2022-12-26T08:49:24.540Z,2.90
2022-12-26T08:54:28.657Z,3.07
2022-12-26T08:59:31.654Z,3.07
2022-12-26T09:04:42.797Z,2.90
2022-12-26T09:09:49.711Z,2.50
2022-12-26T09:14:52.651Z,2.73
2022-12-26T09:19:55.684Z,2.90
2022-12-26T09:24:58.822Z,2.93
2022-12-26T09:30:01.836Z,2.73
2022-12-26T09:35:05.208Z,2.87
2022-12-26T09:40:17.441Z,2.70
2022-12-26T09:45:42.492Z,2.90
2022-12-26T09:50:57.477Z,2.73
2022-12-26T10:02:30.954Z,2.60
2022-12-26T10:07:42.208Z,2.80
2022-12-26T10:13:27.093Z,2.50
2022-12-26T10:19:13.321Z,2.40
2022-12-26T10:24:24.582Z,3.07
2022-12-26T10:29:41.489Z,2.90
2022-12-26T10:34:47.529Z,3.10
2022-12-26T10:40:09.893Z,4.07
2022-12-26T10:45:26.538Z,3.50
2022-12-26T10:50:32.947Z,3.47
2022-12-26T10:55:36.819Z,3.30
2022-12-26T11:00:39.809Z,4.17
2022-12-26T11:06:08.748Z,3.90
2022-12-26T11:11:54.203Z,3.37
2022-12-26T11:17:22.351Z,3.13
2022-12-26T11:22:29.447Z,3.27
2022-12-26T11:27:52.555Z,3.63
2022-12-26T11:33:35.047Z,3.20
2022-12-26T11:39:09.914Z,2.90
2022-12-26T11:44:30.682Z,3.63
2022-12-26T11:49:49.787Z,5.07
2022-12-26T11:54:52.875Z,2.70
2022-12-26T12:00:14.164Z,2.77
2022-12-26T12:05:51.158Z,3.30
2022-12-26T12:11:42.143Z,2.40
2022-12-26T12:17:26.734Z,2.90
2022-12-26T12:23:13.343Z,2.80
2022-12-26T12:28:46.824Z,3.10
2022-12-26T12:34:19.104Z,2.50
2022-12-26T12:39:46.084Z,3.20
2022-12-26T12:45:17.968Z,3.10
2022-12-26T12:50:20.979Z,2.53
2022-12-26T12:55:37.803Z,2.60
2022-12-26T13:00:49.172Z,2.40
2022-12-26T13:06:24.271Z,2.63
2022-12-26T13:11:37.579Z,2.40
2022-12-26T13:17:28.987Z,2.10
2022-12-26T13:23:11.124Z,2.00
2022-12-26T13:28:44.804Z,2.13
2022-12-26T13:34:07.856Z,1.57
2022-12-26T13:39:31.955Z,1.47
2022-12-26T13:44:36.527Z,2.63
2022-12-26T13:49:41.676Z,2.00
2022-12-26T13:54:51.689Z,2.40
2022-12-26T14:00:09.453Z,1.20
2022-12-26T14:05:54.881Z,1.30
2022-12-26T14:11:36.419Z,1.20
2022-12-26T14:17:41.558Z,1.43
2022-12-26T14:23:11.024Z,1.80
2022-12-26T14:28:44.788Z,2.40
2022-12-26T14:34:12.915Z,1.83
2022-12-26T14:39:37.376Z,1.60
2022-12-26T14:44:40.373Z,2.67
2022-12-26T14:49:43.735Z,2.20
2022-12-26T14:54:51.367Z,1.80
2022-12-26T15:00:17.921Z,2.83
2022-12-26T15:05:49.923Z,2.80
2022-12-26T15:11:30.352Z,4.57
2022-12-26T15:17:14.013Z,4.87
2022-12-26T15:23:24.691Z,4.60
2022-12-26T15:28:39.637Z,3.23
2022-12-26T15:34:18.886Z,2.77
2022-12-26T15:39:37.584Z,2.60
2022-12-26T15:44:49.478Z,2.30
2022-12-26T15:50:07.702Z,2.97
2022-12-26T15:55:27.312Z,3.03
2022-12-26T16:00:33.759Z,2.10
2022-12-26T16:06:28.400Z,2.70
2022-12-26T16:11:58.971Z,2.60
2022-12-26T16:17:32.976Z,3.00
2022-12-26T16:22:53.543Z,5.27
2022-12-26T16:28:34.416Z,4.33
2022-12-26T16:33:50.473Z,3.10
2022-12-26T16:39:18.581Z,4.50
2022-12-26T16:44:43.775Z,4.57
2022-12-26T16:49:47.335Z,3.20
2022-12-26T16:54:50.354Z,2.30
2022-12-26T16:59:56.841Z,2.30
2022-12-26T17:05:18.499Z,3.30
2022-12-26T17:10:40.772Z,3.10
2022-12-26T17:16:25.943Z,2.43
2022-12-26T17:21:51.017Z,2.47
2022-12-26T17:27:27.228Z,2.83
2022-12-26T17:33:20.397Z,2.10
2022-12-26T17:38:46.739Z,2.47
2022-12-26T17:44:20.002Z,5.90
2022-12-26T17:49:29.207Z,4.10
2022-12-26T17:54:36.286Z,3.07
2022-12-26T17:59:39.501Z,2.13
2022-12-26T18:05:02.039Z,2.20
2022-12-26T18:10:06.262Z,2.60
2022-12-26T18:15:09.602Z,2.50
2022-12-26T18:20:24.596Z,1.50
2022-12-26T18:25:28.100Z,1.67
2022-12-26T18:30:31.104Z,1.90
2022-12-26T18:35:34.084Z,2.43
2022-12-26T18:40:39.657Z,2.63
2022-12-26T18:45:43.629Z,1.60
2022-12-26T18:50:47.099Z,1.87
2022-12-26T18:55:58.632Z,2.00
2022-12-26T19:01:04.035Z,1.83
2022-12-26T19:06:50.067Z,1.67
2022-12-26T19:12:07.774Z,1.97
2022-12-26T19:17:28.627Z,1.20
2022-12-26T19:22:48.754Z,1.13
2022-12-26T19:28:12.289Z,1.40
2022-12-26T19:33:34.804Z,1.00
2022-12-26T19:38:49.134Z,1.30
2022-12-26T19:44:12.872Z,1.00
2022-12-26T19:49:27.471Z,1.10
2022-12-26T19:54:33.791Z,1.17
2022-12-26T19:59:36.879Z,0.83
2022-12-26T20:05:02.402Z,0.80
2022-12-26T20:10:20.669Z,0.83
2022-12-26T20:15:52.761Z,1.00
2022-12-26T20:21:03.230Z,0.97
2022-12-26T20:26:32.629Z,0.87
2022-12-26T20:31:58.952Z,0.90
2022-12-26T20:37:13.462Z,1.20
2022-12-26T20:42:29.505Z,2.17
2022-12-26T20:47:55.881Z,1.27
2022-12-26T20:53:09.369Z,1.50
2022-12-26T20:58:25.162Z,1.13
2022-12-26T21:03:51.337Z,1.53
2022-12-26T21:08:57.891Z,1.33
2022-12-26T21:14:15.344Z,1.50
2022-12-26T21:19:27.745Z,1.50
2022-12-26T21:24:36.422Z,1.40
2022-12-26T21:29:40.373Z,1.77
2022-12-26T21:34:43.364Z,1.40
2022-12-26T21:39:47.621Z,1.20
2022-12-26T21:44:50.716Z,1.13
2022-12-26T21:49:53.690Z,1.53
2022-12-26T21:55:14.922Z,1.77
2022-12-26T22:00:20.495Z,1.93
2022-12-26T22:05:47.843Z,1.70
2022-12-26T22:11:27.028Z,1.93
2022-12-26T22:16:33.957Z,2.40
2022-12-26T22:21:56.256Z,2.37
2022-12-26T22:27:17.874Z,2.40
2022-12-26T22:32:46.108Z,2.20
2022-12-26T22:38:16.044Z,2.13
2022-12-26T22:43:39.996Z,2.03
2022-12-26T22:49:00.882Z,2.27
2022-12-26T22:54:10.692Z,1.93
2022-12-26T22:59:49.196Z,1.97
2022-12-26T23:04:58.396Z,1.90
2022-12-26T23:10:31.139Z,2.50
2022-12-26T23:16:34.836Z,2.77
2022-12-26T23:21:59.783Z,2.67
2022-12-26T23:27:44.998Z,2.60
2022-12-26T23:33:01.399Z,2.50
2022-12-26T23:38:15.443Z,2.60
2022-12-26T23:43:34.987Z,2.57
2022-12-26T23:48:43.185Z,2.70
2022-12-26T23:53:46.156Z,2.57
2022-12-26T23:59:04.135Z,2.73
